Time;durP1;ratioP1;P1;durP2;ratioP2;P2;SDS_P1;SDS_P2;PMS_P1;PMS_P2;Temp;Humidity;BMP_temperature;BMP_pressure;BME280_temperature;BME280_humidity;BME280_pressure;Samples;Min_cycle;Max_cycle;Signal;HPM_P1;HPM_P2
2021/01/15 00:01:00;;;;;;;9.27;4.05;;;3.70;99.90;;;;;;5077549;28;20124;-74
2021/01/15 00:03:26;;;;;;;8.43;3.60;;;3.60;99.90;;;;;;5058036;28;20522;-74
2021/01/15 00:05:52;;;;;;;8.23;3.30;;;3.60;99.90;;;;;;5062858;28;20078;-74
2021/01/15 00:08:17;;;;;;;6.18;3.25;;;3.60;99.90;;;;;;5068101;28;20023;-74
2021/01/15 00:10:43;;;;;;;5.07;3.35;;;3.60;99.90;;;;;;5053937;28;20029;-74
2021/01/15 00:13:08;;;;;;;14.15;3.88;;;3.50;99.90;;;;;;5067139;28;20067;-74
2021/01/15 00:15:34;;;;;;;6.25;3.45;;;3.60;99.90;;;;;;5066407;28;20033;-74
2021/01/15 00:17:59;;;;;;;6.53;3.80;;;3.50;99.90;;;;;;5057708;28;20270;-74
2021/01/15 00:20:25;;;;;;;7.20;3.78;;;3.50;99.90;;;;;;5056967;28;20122;-74
2021/01/15 00:22:50;;;;;;;7.60;3.90;;;3.50;99.90;;;;;;5069328;28;20040;-74
2021/01/15 00:25:16;;;;;;;7.05;3.78;;;3.40;99.90;;;;;;5066957;28;20035;-74
2021/01/15 00:27:41;;;;;;;6.05;3.35;;;3.50;99.90;;;;;;5055955;28;20431;-74
2021/01/15 00:30:08;;;;;;;9.05;4.18;;;3.50;99.90;;;;;;5057572;28;20019;-74
2021/01/15 00:32:35;;;;;;;7.18;3.65;;;3.40;99.90;;;;;;5060255;28;20033;-74
2021/01/15 00:35:01;;;;;;;5.78;3.47;;;3.40;99.90;;;;;;5052793;28;20025;-74
2021/01/15 00:37:26;;;;;;;8.85;3.88;;;3.40;99.90;;;;;;5065061;28;20032;-75
2021/01/15 00:39:52;;;;;;;8.23;3.80;;;3.40;99.90;;;;;;5065748;28;20021;-74
2021/01/15 00:42:17;;;;;;;10.57;3.63;;;3.40;99.90;;;;;;5062279;28;20013;-74
2021/01/15 00:44:45;;;;;;;10.02;4.28;;;3.30;99.90;;;;;;5058882;28;20037;-74
2021/01/15 00:47:14;;;;;;;9.48;4.05;;;3.30;99.90;;;;;;5052401;28;20035;-75
2021/01/15 00:49:40;;;;;;;9.98;3.72;;;3.40;99.90;;;;;;5052698;28;20052;-75
2021/01/15 00:52:05;;;;;;;9.20;4.13;;;3.30;99.90;;;;;;5056898;28;20039;-74
2021/01/15 00:54:31;;;;;;;8.85;4.32;;;3.30;99.90;;;;;;5065050;28;20032;-74
2021/01/15 00:57:00;;;;;;;9.65;4.40;;;3.30;99.90;;;;;;5059097;28;20116;-74
2021/01/15 00:59:25;;;;;;;9.38;4.32;;;3.30;99.90;;;;;;5050815;28;20068;-74
2021/01/15 01:01:51;;;;;;;8.93;4.43;;;3.20;99.90;;;;;;5059889;28;20079;-74
2021/01/15 01:04:16;;;;;;;9.85;4.28;;;3.30;99.90;;;;;;5071116;28;20501;-74
2021/01/15 01:06:42;;;;;;;8.35;4.47;;;3.20;99.90;;;;;;5065377;28;20078;-74
2021/01/15 01:09:07;;;;;;;6.85;4.10;;;3.20;99.90;;;;;;5064778;28;20021;-74
2021/01/15 01:11:33;;;;;;;7.60;4.20;;;3.20;99.90;;;;;;5068546;28;20078;-74
2021/01/15 01:14:00;;;;;;;8.15;4.15;;;3.20;99.90;;;;;;5051449;28;20524;-74
2021/01/15 01:16:26;;;;;;;6.40;4.10;;;3.20;99.90;;;;;;5056591;28;20116;-74
2021/01/15 01:18:53;;;;;;;10.55;4.32;;;3.20;99.90;;;;;;5068835;28;20115;-74
2021/01/15 01:21:19;;;;;;;9.55;3.97;;;3.20;99.90;;;;;;5065891;28;20093;-74
2021/01/15 01:23:44;;;;;;;8.57;4.43;;;3.30;99.90;;;;;;5060109;28;20025;-74
2021/01/15 01:26:11;;;;;;;7.47;4.05;;;3.30;99.90;;;;;;5047308;28;20458;-74
2021/01/15 01:28:37;;;;;;;8.57;3.90;;;3.30;99.90;;;;;;5050304;28;20029;-74
2021/01/15 01:31:03;;;;;;;7.65;4.07;;;3.20;99.90;;;;;;5060348;28;20024;-73
2021/01/15 01:33:31;;;;;;;8.10;3.90;;;3.20;99.90;;;;;;5056544;28;20357;-74
2021/01/15 01:35:56;;;;;;;7.60;4.07;;;3.20;99.90;;;;;;5050870;28;20027;-74
2021/01/15 01:38:22;;;;;;;7.70;4.18;;;3.10;99.90;;;;;;5050348;28;20029;-74
2021/01/15 01:40:48;;;;;;;10.75;4.20;;;3.30;99.90;;;;;;5063102;28;20050;-74
2021/01/15 01:43:13;;;;;;;7.40;4.13;;;3.30;99.90;;;;;;5062302;28;20024;-74
2021/01/15 01:45:39;;;;;;;7.88;4.28;;;3.20;99.90;;;;;;5063023;28;20037;-74
2021/01/15 01:48:06;;;;;;;9.52;4.20;;;3.20;99.90;;;;;;5060138;28;20731;-74
2021/01/15 01:50:33;;;;;;;6.28;4.20;;;3.30;99.90;;;;;;5059848;28;20055;-74
2021/01/15 01:53:00;;;;;;;6.25;3.88;;;3.20;99.90;;;;;;5067103;28;20052;-74
2021/01/15 01:55:27;;;;;;;7.35;4.53;;;3.10;99.90;;;;;;5068834;28;20502;-74
2021/01/15 01:57:53;;;;;;;9.25;4.28;;;3.20;99.90;;;;;;5062492;28;20039;-74
2021/01/15 02:00:18;;;;;;;9.07;4.30;;;3.20;99.90;;;;;;5056589;28;20136;-74
2021/01/15 02:02:44;;;;;;;7.32;4.30;;;3.10;99.90;;;;;;5057774;28;20056;-74
2021/01/15 02:05:10;;;;;;;9.00;4.40;;;3.10;99.90;;;;;;5063969;28;20029;-75
2021/01/15 02:07:35;;;;;;;7.22;4.07;;;3.10;99.90;;;;;;5068672;28;20040;-74
2021/01/15 02:10:14;;;;;;;7.07;4.25;;;3.10;99.90;;;;;;5060571;28;20043;-75
2021/01/15 02:12:56;;;;;;;7.80;4.45;;;3.20;99.90;;;;;;5064808;28;20036;-74
2021/01/15 02:15:32;;;;;;;6.80;3.92;;;3.20;99.90;;;;;;5049671;28;20515;-74
2021/01/15 02:18:06;;;;;;;8.68;4.40;;;3.10;99.90;;;;;;5053293;28;20029;-73
2021/01/15 02:20:54;;;;;;;8.07;4.07;;;3.10;99.90;;;;;;5069588;28;20058;-73
2021/01/15 02:23:43;;;;;;;9.93;4.68;;;3.10;99.90;;;;;;5063044;28;20024;-74
2021/01/15 02:26:48;;;;;;;9.32;5.05;;;3.10;99.90;;;;;;5049481;28;20029;-74
2021/01/15 02:29:16;;;;;;;10.77;4.63;;;3.10;99.90;;;;;;5055819;28;20028;-74
2021/01/15 02:31:45;;;;;;;7.90;4.45;;;3.10;99.90;;;;;;5058501;28;20392;-75
2021/01/15 02:34:34;;;;;;;11.38;4.50;;;3.10;99.90;;;;;;5065455;28;20020;-74
2021/01/15 02:37:07;;;;;;;9.55;4.88;;;3.00;99.90;;;;;;5059360;28;20138;-74
2021/01/15 02:40:10;;;;;;;8.90;4.60;;;3.10;99.90;;;;;;5055652;28;20056;-74
2021/01/15 02:42:38;;;;;;;10.20;4.55;;;3.10;99.90;;;;;;5059860;28;20036;-75
2021/01/15 02:45:08;;;;;;;9.00;4.35;;;3.20;99.90;;;;;;5050420;28;20033;-74
2021/01/15 02:47:50;;;;;;;6.80;3.95;;;3.20;99.90;;;;;;5048922;28;20112;-74
2021/01/15 02:50:18;;;;;;;5.65;3.92;;;3.30;99.90;;;;;;5049905;28;20399;-74
2021/01/15 02:52:45;;;;;;;9.25;4.45;;;3.30;99.90;;;;;;5058596;28;20081;-74
2021/01/15 02:55:11;;;;;;;9.65;4.25;;;3.30;99.90;;;;;;5062560;28;20031;-75
2021/01/15 02:57:37;;;;;;;9.40;4.40;;;3.30;99.90;;;;;;5048775;28;20025;-74
2021/01/15 03:00:11;;;;;;;7.22;3.95;;;3.20;99.90;;;;;;5053030;28;20070;-74
2021/01/15 03:02:52;;;;;;;9.55;4.50;;;3.20;99.90;;;;;;5051255;28;20029;-74
2021/01/15 03:05:20;;;;;;;9.80;4.85;;;3.20;99.90;;;;;;5049049;28;20162;-75
2021/01/15 03:07:47;;;;;;;8.77;4.00;;;3.20;99.90;;;;;;5049023;28;20539;-74
2021/01/15 03:10:14;;;;;;;8.35;4.20;;;3.20;99.90;;;;;;5064115;28;20424;-74
2021/01/15 03:12:42;;;;;;;10.05;4.55;;;3.20;99.90;;;;;;5065045;28;20033;-74
2021/01/15 03:15:10;;;;;;;6.30;3.97;;;3.20;99.90;;;;;;5068962;28;20024;-73
2021/01/15 03:17:41;;;;;;;9.32;4.22;;;3.30;99.90;;;;;;5059223;28;20059;-74
2021/01/15 03:20:08;;;;;;;7.32;3.83;;;3.20;99.90;;;;;;5067034;28;20033;-73
2021/01/15 03:22:34;;;;;;;5.65;3.78;;;3.20;99.90;;;;;;5063818;28;20021;-74
2021/01/15 03:25:00;;;;;;;7.00;4.03;;;3.20;99.90;;;;;;5066552;28;20111;-75
2021/01/15 03:27:53;;;;;;;8.10;4.47;;;3.30;99.90;;;;;;5068280;28;20111;-74
2021/01/15 03:30:27;;;;;;;7.25;4.38;;;3.30;99.90;;;;;;5067494;28;20039;-73
2021/01/15 03:32:59;;;;;;;9.43;4.30;;;3.20;99.90;;;;;;5054710;28;20059;-74
2021/01/15 03:35:26;;;;;;;9.70;5.25;;;3.30;99.90;;;;;;5061719;28;20475;-74
2021/01/15 03:37:54;;;;;;;9.05;4.38;;;3.20;99.90;;;;;;5053988;28;20165;-74
2021/01/15 03:40:20;;;;;;;8.32;4.38;;;3.30;99.90;;;;;;5059514;28;20017;-73
2021/01/15 03:42:46;;;;;;;7.55;4.45;;;3.30;99.90;;;;;;5048654;28;20119;-73
2021/01/15 03:45:13;;;;;;;8.98;4.75;;;3.20;99.90;;;;;;5049460;28;20076;-73
2021/01/15 03:47:39;;;;;;;8.98;4.15;;;3.10;99.90;;;;;;5048823;28;20376;-74
2021/01/15 03:50:05;;;;;;;7.80;4.47;;;3.20;99.90;;;;;;5053749;28;20047;-73
2021/01/15 03:52:31;;;;;;;8.07;4.60;;;3.20;99.90;;;;;;5048548;28;20029;-74
2021/01/15 03:54:56;;;;;;;6.68;4.13;;;3.10;99.90;;;;;;5050233;28;20505;-74
2021/01/15 03:57:21;;;;;;;6.65;4.30;;;3.10;99.90;;;;;;5062569;28;20046;-74
2021/01/15 03:59:47;;;;;;;7.07;4.07;;;3.10;99.90;;;;;;5068721;28;20021;-74
2021/01/15 04:02:12;;;;;;;6.13;4.05;;;3.10;99.90;;;;;;5063726;28;20086;-74
2021/01/15 04:04:38;;;;;;;11.43;4.47;;;3.10;99.90;;;;;;5067296;28;20505;-74
2021/01/15 04:07:03;;;;;;;9.60;4.70;;;3.10;99.90;;;;;;5065989;28;20025;-74
2021/01/15 04:09:29;;;;;;;11.20;4.95;;;3.20;99.90;;;;;;5067517;28;20013;-74
2021/01/15 04:11:54;;;;;;;8.10;4.30;;;3.20;99.90;;;;;;5062580;28;20155;-74
2021/01/15 04:14:19;;;;;;;10.85;4.45;;;3.20;99.90;;;;;;5048291;28;20025;-74
2021/01/15 04:16:52;;;;;;;7.40;4.32;;;3.10;99.90;;;;;;5056660;28;20561;-74
2021/01/15 04:19:18;;;;;;;11.52;4.65;;;3.20;99.90;;;;;;5067617;28;20067;-74
2021/01/15 04:21:44;;;;;;;9.90;4.82;;;3.10;99.90;;;;;;5058413;28;20064;-74
2021/01/15 04:24:09;;;;;;;9.27;4.85;;;3.10;99.90;;;;;;5061123;28;20040;-74
2021/01/15 04:26:35;;;;;;;8.68;4.47;;;3.10;99.90;;;;;;5060642;28;20024;-73
2021/01/15 04:29:00;;;;;;;6.47;4.13;;;3.10;99.90;;;;;;5054465;28;20096;-73
2021/01/15 04:31:26;;;;;;;11.23;4.93;;;3.10;99.90;;;;;;5059802;28;20025;-74
2021/01/15 04:33:52;;;;;;;9.13;4.63;;;3.10;99.90;;;;;;5068099;28;20075;-74
2021/01/15 04:36:17;;;;;;;7.43;3.78;;;3.10;99.90;;;;;;5070966;28;20036;-74
2021/01/15 04:38:44;;;;;;;8.80;4.50;;;3.10;99.90;;;;;;5064929;28;20499;-74
2021/01/15 04:41:09;;;;;;;7.97;3.58;;;3.00;99.90;;;;;;5069831;28;20032;-73
2021/01/15 04:43:38;;;;;;;7.78;4.00;;;3.00;99.90;;;;;;5070196;28;20047;-74
2021/01/15 04:46:05;;;;;;;6.47;4.03;;;3.00;99.90;;;;;;5069570;28;20041;-74
2021/01/15 04:48:34;;;;;;;5.65;3.60;;;3.00;99.90;;;;;;5061077;28;20024;-74
2021/01/15 04:51:01;;;;;;;6.65;4.00;;;2.90;99.90;;;;;;5063826;28;20422;-74
2021/01/15 04:53:32;;;;;;;7.07;3.97;;;2.90;99.90;;;;;;5063465;28;20169;-74
2021/01/15 04:56:04;;;;;;;5.82;3.30;;;2.90;99.90;;;;;;5051680;28;20029;-73
2021/01/15 04:58:33;;;;;;;7.90;4.03;;;2.90;99.90;;;;;;5051488;28;20206;-74
2021/01/15 05:00:59;;;;;;;5.32;3.58;;;2.90;99.90;;;;;;5063303;28;20060;-73
2021/01/15 05:03:25;;;;;;;95.53;37.40;;;2.80;99.90;;;;;;5066334;28;20144;-73
2021/01/15 05:06:00;;;;;;;14.73;8.07;;;2.80;99.90;;;;;;5060064;28;20029;-73
2021/01/15 05:08:27;;;;;;;16.17;9.75;;;2.80;99.90;;;;;;5051255;28;20733;-74
2021/01/15 05:10:54;;;;;;;10.93;6.53;;;2.80;99.90;;;;;;5051613;28;20435;-74
2021/01/15 05:13:20;;;;;;;8.35;5.90;;;2.80;99.90;;;;;;5057493;28;20025;-74
2021/01/15 05:15:51;;;;;;;17.98;9.95;;;2.80;99.90;;;;;;5050910;28;20399;-74
2021/01/15 05:18:18;;;;;;;10.38;5.18;;;2.80;99.90;;;;;;5052129;28;20056;-73
2021/01/15 05:20:47;;;;;;;9.65;4.88;;;2.80;99.90;;;;;;5069270;28;20060;-74
2021/01/15 05:23:15;;;;;;;7.28;4.10;;;2.80;99.90;;;;;;5068091;28;20028;-73
2021/01/15 05:25:46;;;;;;;11.32;6.00;;;2.80;99.90;;;;;;5051462;28;20073;-74
2021/01/15 05:28:14;;;;;;;9.82;4.70;;;2.80;99.90;;;;;;5051090;28;20078;-73
2021/01/15 05:30:41;;;;;;;9.68;5.57;;;2.80;99.90;;;;;;5051473;28;20037;-73
2021/01/15 05:33:11;;;;;;;13.63;6.22;;;2.80;99.90;;;;;;5052540;28;20143;-74
2021/01/15 05:35:51;;;;;;;8.13;4.50;;;2.80;99.90;;;;;;5070522;28;20039;-74
2021/01/15 05:38:18;;;;;;;5.88;3.75;;;2.80;99.90;;;;;;5066426;28;20229;-74
2021/01/15 05:40:48;;;;;;;7.70;4.78;;;2.80;99.90;;;;;;5050567;28;20492;-74
2021/01/15 05:43:32;;;;;;;8.75;4.63;;;2.80;99.90;;;;;;5065331;28;20029;-74
2021/01/15 05:46:08;;;;;;;6.57;4.18;;;2.80;99.90;;;;;;5050483;28;20032;-73
2021/01/15 05:48:35;;;;;;;8.57;4.68;;;2.80;99.90;;;;;;5050386;28;20029;-74
2021/01/15 05:51:01;;;;;;;7.07;4.13;;;2.70;99.90;;;;;;5050894;28;20090;-74
2021/01/15 05:53:38;;;;;;;8.73;4.72;;;2.80;99.90;;;;;;5064044;28;20120;-73
2021/01/15 05:56:04;;;;;;;11.55;6.13;;;2.80;99.90;;;;;;5070412;28;20028;-74
2021/01/15 05:58:30;;;;;;;13.43;7.20;;;2.80;99.90;;;;;;5055573;28;20036;-74
2021/01/15 06:00:55;;;;;;;12.70;6.47;;;2.80;99.90;;;;;;5054372;28;20066;-74
2021/01/15 06:03:22;;;;;;;11.05;5.80;;;2.70;99.90;;;;;;5064306;28;20174;-73
2021/01/15 06:05:52;;;;;;;7.05;4.40;;;2.80;99.90;;;;;;5065501;28;20075;-74
2021/01/15 06:08:18;;;;;;;10.50;4.88;;;2.70;99.90;;;;;;5055696;28;20141;-74
2021/01/15 06:10:46;;;;;;;9.32;5.25;;;2.80;99.90;;;;;;5059426;28;20467;-75
2021/01/15 06:13:31;;;;;;;7.95;4.53;;;2.80;99.90;;;;;;5059771;28;20108;-74
2021/01/15 06:15:58;;;;;;;14.23;6.30;;;2.80;99.90;;;;;;5049672;28;20123;-74
2021/01/15 06:18:23;;;;;;;15.10;6.50;;;2.80;99.90;;;;;;5062292;28;20036;-75
2021/01/15 06:20:49;;;;;;;10.70;4.82;;;2.80;99.90;;;;;;5052461;28;20033;-75
2021/01/15 06:23:15;;;;;;;12.15;6.80;;;2.80;99.90;;;;;;5049806;28;20032;-75
2021/01/15 06:25:58;;;;;;;19.85;10.82;;;2.80;99.90;;;;;;5055616;28;21181;-75
2021/01/15 06:28:34;;;;;;;17.13;9.30;;;2.80;99.90;;;;;;5050790;28;20036;-75
2021/01/15 06:31:03;;;;;;;16.20;9.45;;;2.70;99.90;;;;;;5051756;28;20791;-74
2021/01/15 06:33:28;;;;;;;16.95;8.38;;;2.70;99.90;;;;;;5054215;28;20418;-74
2021/01/15 06:35:54;;;;;;;15.40;7.22;;;2.80;99.90;;;;;;5051808;28;20074;-74
2021/01/15 06:38:26;;;;;;;18.00;8.68;;;2.80;99.90;;;;;;5050220;28;20047;-75
2021/01/15 06:41:16;;;;;;;18.73;9.25;;;2.80;99.90;;;;;;5048791;28;20025;-74
2021/01/15 06:43:43;;;;;;;23.73;11.77;;;2.90;99.90;;;;;;5046274;28;20136;-75
2021/01/15 06:46:22;;;;;;;16.75;8.05;;;2.80;99.90;;;;;;5059766;28;20047;-76
2021/01/15 06:49:03;;;;;;;29.40;12.77;;;2.80;99.90;;;;;;5057161;28;20036;-76
2021/01/15 06:51:34;;;;;;;23.15;12.40;;;2.90;99.90;;;;;;5054064;28;20495;-76
2021/01/15 06:54:04;;;;;;;;;;;2.90;99.90;;;;;;5049243;28;20056;-76
2021/01/15 06:56:38;;;;;;;16.45;7.47;;;2.90;99.90;;;;;;5048803;28;19911;-75
2021/01/15 06:59:14;;;;;;;19.13;9.82;;;2.90;99.90;;;;;;5048953;28;20040;-76
2021/01/15 07:02:09;;;;;;;9.38;5.18;;;2.80;99.90;;;;;;5050713;28;20020;-76
2021/01/15 07:04:56;;;;;;;20.52;10.05;;;2.80;99.90;;;;;;5048543;28;20085;-76
2021/01/15 07:07:25;;;;;;;13.68;7.43;;;2.80;99.90;;;;;;5060034;28;20074;-74
2021/01/15 07:09:50;;;;;;;36.47;16.10;;;2.80;99.90;;;;;;5066999;28;20071;-77
2021/01/15 07:12:18;;;;;;;22.77;9.52;;;2.80;99.90;;;;;;5055252;28;20076;-75
2021/01/15 07:14:58;;;;;;;40.40;18.45;;;2.80;99.90;;;;;;5055617;28;20032;-75
2021/01/15 07:17:37;;;;;;;22.15;10.93;;;2.80;99.90;;;;;;5056316;28;20037;-74
2021/01/15 07:20:09;;;;;;;14.43;7.38;;;2.70;99.90;;;;;;5060605;28;20032;-74
2021/01/15 07:22:37;;;;;;;20.08;10.35;;;2.80;99.90;;;;;;5065100;28;20074;-75
2021/01/15 07:25:06;;;;;;;15.02;8.02;;;2.80;99.90;;;;;;5065279;28;20028;-75
2021/01/15 07:27:32;;;;;;;10.20;5.38;;;2.80;99.90;;;;;;5065545;28;20059;-74
2021/01/15 07:29:58;;;;;;;15.63;8.45;;;2.80;99.90;;;;;;5062729;28;20546;-75
2021/01/15 07:32:30;;;;;;;9.93;5.90;;;2.80;99.90;;;;;;5062231;28;20021;-74
2021/01/15 07:35:00;;;;;;;16.33;8.80;;;2.80;99.90;;;;;;5063050;28;20036;-74
2021/01/15 07:37:28;;;;;;;13.38;7.18;;;2.80;99.90;;;;;;5065339;28;20037;-74
2021/01/15 07:40:01;;;;;;;13.70;6.80;;;2.80;99.90;;;;;;5063906;28;20033;-74
2021/01/15 07:42:42;;;;;;;9.20;4.85;;;2.80;99.90;;;;;;5065076;28;20024;-74
2021/01/15 07:45:31;;;;;;;25.67;13.68;;;2.90;99.90;;;;;;5065269;28;20452;-74
2021/01/15 07:48:02;;;;;;;12.50;6.30;;;2.90;99.90;;;;;;5059753;28;20036;-76
2021/01/15 07:50:33;;;;;;;19.67;9.60;;;2.90;99.90;;;;;;5064792;28;20117;-76
2021/01/15 07:53:18;;;;;;;19.75;9.93;;;2.80;99.90;;;;;;5064270;28;20429;-75
2021/01/15 07:55:52;;;;;;;14.52;8.07;;;2.80;99.90;;;;;;5067985;28;20037;-75
2021/01/15 07:58:23;;;;;;;11.07;6.28;;;2.80;99.90;;;;;;5066030;28;20028;-76
2021/01/15 08:00:49;;;;;;;9.98;4.55;;;2.90;99.90;;;;;;5064471;28;20043;-75
2021/01/15 08:03:15;;;;;;;7.15;4.05;;;2.90;99.90;;;;;;5064460;28;20483;-73
2021/01/15 08:05:46;;;;;;;9.68;4.40;;;2.80;99.90;;;;;;5069703;28;20032;-79
2021/01/15 08:08:16;;;;;;;11.05;5.95;;;2.80;99.90;;;;;;5064632;28;20167;-78
2021/01/15 08:10:44;;;;;;;10.20;5.43;;;2.90;99.90;;;;;;5067082;28;20040;-77
2021/01/15 08:13:24;;;;;;;15.43;9.23;;;2.90;99.90;;;;;;5065318;28;20112;-80
2021/01/15 08:16:03;;;;;;;16.88;8.82;;;2.90;99.90;;;;;;5068000;28;20155;-81
2021/01/15 08:18:31;;;;;;;11.10;6.10;;;2.90;99.90;;;;;;5064739;28;20048;-75
2021/01/15 08:20:57;;;;;;;10.35;5.00;;;2.90;99.90;;;;;;5069086;28;20052;-76
2021/01/15 08:23:25;;;;;;;11.73;6.63;;;2.90;99.90;;;;;;5065798;28;20024;-76
2021/01/15 08:25:53;;;;;;;13.00;7.10;;;2.80;99.90;;;;;;5066890;28;20028;-76
2021/01/15 08:28:19;;;;;;;14.57;7.38;;;2.90;99.90;;;;;;5063493;28;20024;-76
2021/01/15 08:31:08;;;;;;;17.92;9.25;;;2.90;99.90;;;;;;5067431;28;20269;-76
2021/01/15 08:33:34;;;;;;;16.83;8.50;;;2.80;99.90;;;;;;5064776;28;20467;-76
2021/01/15 08:36:02;;;;;;;14.90;7.63;;;2.80;99.90;;;;;;5067321;28;20116;-76
2021/01/15 08:38:29;;;;;;;8.32;4.97;;;2.90;99.90;;;;;;5065215;28;20033;-76
2021/01/15 08:40:56;;;;;;;14.40;7.50;;;2.80;99.90;;;;;;5066025;28;20044;-76
2021/01/15 08:43:23;;;;;;;16.13;8.88;;;2.80;99.90;;;;;;5067343;28;20033;-76
2021/01/15 08:45:49;;;;;;;16.48;8.35;;;2.80;99.90;;;;;;5066977;28;20060;-76
2021/01/15 08:48:15;;;;;;;13.18;7.18;;;2.90;99.90;;;;;;5064982;28;20048;-76
2021/01/15 08:50:41;;;;;;;9.10;5.45;;;2.90;99.90;;;;;;5056700;28;20021;-75
2021/01/15 08:53:10;;;;;;;11.23;6.00;;;2.80;99.90;;;;;;5061807;28;20079;-75
2021/01/15 08:55:39;;;;;;;13.65;7.40;;;2.90;99.90;;;;;;5063035;28;20091;-75
2021/01/15 08:58:06;;;;;;;30.63;12.75;;;2.80;99.90;;;;;;5057124;28;20376;-75
2021/01/15 09:00:34;;;;;;;22.65;10.60;;;2.80;99.90;;;;;;5060593;28;20036;-75
2021/01/15 09:03:02;;;;;;;17.08;8.07;;;2.80;99.90;;;;;;5059027;28;20140;-75
2021/01/15 09:05:29;;;;;;;17.50;8.82;;;2.80;99.90;;;;;;5062722;28;20051;-75
2021/01/15 09:07:56;;;;;;;20.23;9.70;;;2.80;99.90;;;;;;5063403;28;20306;-75
2021/01/15 09:10:21;;;;;;;16.58;7.30;;;2.80;99.90;;;;;;5062511;28;20033;-75
2021/01/15 09:12:51;;;;;;;28.23;10.60;;;2.90;99.90;;;;;;5061703;28;20023;-75
2021/01/15 09:15:24;;;;;;;14.60;8.27;;;2.90;99.90;;;;;;5062958;28;20046;-75
2021/01/15 09:17:50;;;;;;;20.27;8.93;;;2.90;99.90;;;;;;5061836;28;20474;-75
2021/01/15 09:20:17;;;;;;;7.88;4.88;;;2.80;99.90;;;;;;5065715;28;20082;-75
2021/01/15 09:22:43;;;;;;;17.75;7.82;;;2.70;99.90;;;;;;5060931;28;20033;-77
2021/01/15 09:25:10;;;;;;;12.48;7.43;;;2.80;99.90;;;;;;5062912;28;20031;-77
2021/01/15 09:27:35;;;;;;;12.57;6.03;;;2.70;99.90;;;;;;5064457;28;20616;-75
2021/01/15 09:30:02;;;;;;;12.77;7.10;;;2.80;99.90;;;;;;5066393;28;20017;-75
2021/01/15 09:32:27;;;;;;;12.30;6.45;;;2.70;99.90;;;;;;5062862;28;20047;-78
2021/01/15 09:34:53;;;;;;;12.77;6.32;;;2.70;99.90;;;;;;5067257;28;20024;-77
2021/01/15 09:37:18;;;;;;;10.02;5.30;;;2.70;99.90;;;;;;5062524;28;20108;-76
2021/01/15 09:39:43;;;;;;;11.52;5.60;;;2.60;99.90;;;;;;5066453;28;20068;-76
2021/01/15 09:42:12;;;;;;;11.10;6.00;;;2.70;99.90;;;;;;5066144;28;20029;-77
2021/01/15 09:44:37;;;;;;;7.28;5.15;;;2.60;99.90;;;;;;5064497;28;20048;-75
2021/01/15 09:47:04;;;;;;;12.13;6.15;;;2.70;99.90;;;;;;5064599;28;20372;-76
2021/01/15 09:49:32;;;;;;;9.85;5.53;;;2.80;99.90;;;;;;5065155;28;20379;-78
2021/01/15 09:51:58;;;;;;;10.57;6.20;;;2.80;99.90;;;;;;5065106;28;20017;-77
2021/01/15 09:54:24;;;;;;;10.95;5.88;;;2.80;99.90;;;;;;5066562;28;20043;-77
2021/01/15 09:56:49;;;;;;;15.43;7.35;;;2.80;99.90;;;;;;5062996;28;20119;-77
2021/01/15 09:59:16;;;;;;;12.60;7.30;;;2.70;99.90;;;;;;5067347;28;20479;-77
2021/01/15 10:01:43;;;;;;;13.15;6.93;;;2.70;99.90;;;;;;5063296;28;20082;-75
2021/01/15 10:04:08;;;;;;;18.00;9.05;;;2.80;99.90;;;;;;5066035;28;20089;-77
2021/01/15 10:06:38;;;;;;;22.38;10.82;;;2.70;99.90;;;;;;5059853;28;20040;-77
2021/01/15 10:09:04;;;;;;;20.50;9.23;;;2.70;99.90;;;;;;5065193;28;20055;-77
2021/01/15 10:11:32;;;;;;;21.00;10.50;;;2.70;99.90;;;;;;5064919;28;20044;-76
2021/01/15 10:14:03;;;;;;;15.07;7.53;;;2.70;99.90;;;;;;5064224;28;20054;-76
2021/01/15 10:16:29;;;;;;;14.38;6.85;;;2.60;99.90;;;;;;5064204;28;20028;-77
2021/01/15 10:18:56;;;;;;;22.30;9.73;;;2.70;99.90;;;;;;5050513;28;20514;-78
2021/01/15 10:21:24;;;;;;;17.48;8.85;;;2.70;99.90;;;;;;5057130;28;20376;-77
2021/01/15 10:23:51;;;;;;;21.08;9.38;;;2.70;99.90;;;;;;5057861;28;20021;-77
2021/01/15 10:26:25;;;;;;;14.07;6.93;;;2.80;99.90;;;;;;5062145;28;20024;-75
2021/01/15 10:28:56;;;;;;;15.90;8.07;;;2.80;99.90;;;;;;5049356;28;20032;-77
2021/01/15 10:31:23;;;;;;;25.98;12.25;;;2.80;99.90;;;;;;5050186;28;20085;-76
2021/01/15 10:33:49;;;;;;;12.13;6.90;;;2.80;99.90;;;;;;5054195;28;20028;-74
2021/01/15 10:36:14;;;;;;;7.35;4.65;;;2.80;99.90;;;;;;5052155;28;20021;-76
2021/01/15 10:38:39;;;;;;;9.20;4.80;;;2.70;99.90;;;;;;5059083;28;20143;-79
2021/01/15 10:41:05;;;;;;;12.55;6.65;;;2.80;99.90;;;;;;5048313;28;20028;-77
2021/01/15 10:43:31;;;;;;;7.43;4.93;;;2.80;99.90;;;;;;5047157;28;20391;-76
2021/01/15 10:45:57;;;;;;;8.27;5.25;;;2.80;99.90;;;;;;5060531;28;20406;-79
2021/01/15 10:48:23;;;;;;;6.90;4.18;;;2.90;99.90;;;;;;5052054;28;20141;-77
2021/01/15 10:50:48;;;;;;;9.00;5.40;;;3.00;99.90;;;;;;5052333;28;20029;-75
2021/01/15 10:53:14;;;;;;;10.48;5.68;;;3.00;99.90;;;;;;5058088;28;20048;-75
2021/01/15 10:55:39;;;;;;;7.95;4.68;;;2.90;99.90;;;;;;5066460;28;20028;-75
2021/01/15 10:58:05;;;;;;;9.85;5.47;;;2.90;99.90;;;;;;5061727;28;20128;-75
2021/01/15 11:00:31;;;;;;;9.82;5.63;;;2.80;99.90;;;;;;5047410;28;20028;-80
2021/01/15 11:02:56;;;;;;;10.27;5.75;;;2.90;99.90;;;;;;5052016;28;20024;-77
2021/01/15 11:05:22;;;;;;;11.57;6.68;;;2.90;99.90;;;;;;5060605;28;20024;-75
2021/01/15 11:07:47;;;;;;;7.50;5.10;;;2.80;99.90;;;;;;5056857;28;20070;-76
2021/01/15 11:10:13;;;;;;;14.27;7.28;;;2.80;99.90;;;;;;5051128;28;20443;-75
2021/01/15 11:12:40;;;;;;;11.10;5.88;;;2.80;99.90;;;;;;5061283;28;20025;-76
2021/01/15 11:15:06;;;;;;;14.70;8.02;;;2.80;99.90;;;;;;5053653;28;20059;-77
2021/01/15 11:17:32;;;;;;;14.90;7.10;;;2.90;99.90;;;;;;5058665;28;20131;-77
2021/01/15 11:19:58;;;;;;;7.70;4.57;;;2.80;99.90;;;;;;5057341;28;20553;-75
2021/01/15 11:22:23;;;;;;;9.93;5.30;;;2.80;99.90;;;;;;5054891;28;20017;-74
2021/01/15 11:24:49;;;;;;;8.95;5.00;;;2.80;99.90;;;;;;5063448;28;20471;-75
2021/01/15 11:27:21;;;;;;;9.13;4.65;;;2.80;99.90;;;;;;5058919;28;20387;-75
2021/01/15 11:29:46;;;;;;;8.60;5.00;;;2.90;99.90;;;;;;5050700;28;20024;-75
2021/01/15 11:32:12;;;;;;;10.10;4.72;;;2.70;99.90;;;;;;5053217;28;20502;-75
2021/01/15 11:34:38;;;;;;;8.07;4.30;;;2.80;99.90;;;;;;5056293;28;20081;-74
2021/01/15 11:37:03;;;;;;;7.95;4.60;;;2.80;99.90;;;;;;5053007;28;20033;-74
2021/01/15 11:39:29;;;;;;;8.05;4.43;;;2.80;99.90;;;;;;5066021;28;20028;-75
2021/01/15 11:41:55;;;;;;;11.88;4.63;;;2.80;99.90;;;;;;5074913;28;20128;-75
2021/01/15 11:44:21;;;;;;;7.50;4.57;;;3.00;99.90;;;;;;5076472;28;20097;-75
2021/01/15 11:46:46;;;;;;;8.02;4.78;;;2.90;99.90;;;;;;5075509;28;20538;-75
2021/01/15 11:49:12;;;;;;;9.10;4.97;;;2.90;99.90;;;;;;5078012;28;20025;-74
2021/01/15 11:51:38;;;;;;;9.15;4.70;;;2.90;99.90;;;;;;5077101;28;20024;-74
2021/01/15 11:54:12;;;;;;;9.68;5.13;;;2.80;99.90;;;;;;5076292;28;20501;-74
2021/01/15 11:56:38;;;;;;;8.27;4.93;;;2.80;99.90;;;;;;5077548;28;20049;-77
2021/01/15 11:59:03;;;;;;;10.40;5.70;;;2.80;99.90;;;;;;5074504;28;20046;-74
2021/01/15 12:01:29;;;;;;;12.93;6.55;;;2.80;99.90;;;;;;5076532;28;20119;-75
2021/01/15 12:03:54;;;;;;;10.15;5.13;;;2.80;99.90;;;;;;5076366;28;20024;-74
2021/01/15 12:06:21;;;;;;;7.90;4.38;;;2.80;99.90;;;;;;5075584;28;20070;-75
2021/01/15 12:08:46;;;;;;;7.97;4.60;;;2.80;99.90;;;;;;5074812;28;20016;-75
2021/01/15 12:11:12;;;;;;;9.60;6.13;;;2.70;99.90;;;;;;5075171;28;20110;-75
2021/01/15 12:13:37;;;;;;;9.75;5.68;;;2.70;99.90;;;;;;5076182;28;20098;-74
2021/01/15 12:16:37;;;;;;;14.23;6.38;;;2.70;99.90;;;;;;5075683;28;20046;-75
2021/01/15 12:19:03;;;;;;;14.27;8.45;;;2.70;99.90;;;;;;5071459;28;20024;-75
2021/01/15 12:21:28;;;;;;;13.35;7.47;;;2.70;99.90;;;;;;5077059;28;20040;-75
2021/01/15 12:23:54;;;;;;;15.88;8.20;;;2.70;99.90;;;;;;5076327;28;20028;-75
2021/01/15 12:26:19;;;;;;;13.82;7.43;;;2.70;99.90;;;;;;5065019;28;20024;-74
2021/01/15 12:28:45;;;;;;;12.32;7.00;;;2.80;99.90;;;;;;5051394;28;20027;-74
2021/01/15 12:31:10;;;;;;;10.10;5.50;;;2.80;99.90;;;;;;5064091;28;20135;-74
2021/01/15 12:33:35;;;;;;;9.52;5.47;;;2.90;99.90;;;;;;5066427;28;20409;-75
2021/01/15 12:36:01;;;;;;;9.07;4.75;;;2.80;99.90;;;;;;5062933;28;20158;-75
2021/01/15 12:38:27;;;;;;;21.63;11.07;;;2.80;99.90;;;;;;5059147;28;20036;-74
2021/01/15 12:40:52;;;;;;;17.75;8.48;;;2.70;99.90;;;;;;5053949;28;20125;-75
2021/01/15 12:43:18;;;;;;;12.77;6.18;;;2.80;99.90;;;;;;5058552;28;20036;-74
2021/01/15 12:45:47;;;;;;;12.75;6.80;;;2.70;99.90;;;;;;5058721;28;20698;-74
2021/01/15 12:48:14;;;;;;;13.10;6.70;;;2.70;99.90;;;;;;5051173;28;20056;-75
2021/01/15 12:50:40;;;;;;;10.52;6.10;;;2.70;99.90;;;;;;5051442;28;20087;-75
2021/01/15 12:53:06;;;;;;;11.32;6.35;;;2.80;99.90;;;;;;5052042;28;20170;-75
2021/01/15 12:55:31;;;;;;;9.15;5.45;;;2.70;99.90;;;;;;5051046;28;20103;-75
2021/01/15 12:57:59;;;;;;;9.45;5.43;;;2.60;99.90;;;;;;5051320;28;20103;-75
2021/01/15 13:00:26;;;;;;;8.57;5.22;;;2.60;99.90;;;;;;5054657;28;20461;-80